Flight Track Log - Related Links

Times and Time Zones

All times are in EST time to prevent confusion due to time zone crossing. See the AFL150 flight status page for this flight to view local times or setup timezone preferences in your user account.

Time Position Orientation Groundspeed Altitude Reporting Facility
EST Latitude Longitude Course Direction KTS MPH feet Rate Location/Type
Fri 10:50:00 AM 55.1456 -48.6756 307° West  Level Estimated
Fri 10:51:00 AM 55.0694 -48.8432 232° Southwest  Level Estimated
Fri 10:52:00 AM 54.9931 -49.0101 231° Southwest  Level Estimated
Fri 10:53:00 AM 54.9165 -49.1764 231° Southwest  Level Estimated
Fri 10:54:00 AM 54.8396 -49.3421 231° Southwest  Level Estimated
Fri 10:55:00 AM 54.7626 -49.5072 231° Southwest  Level Estimated
Fri 10:56:00 AM 54.6853 -49.6716 231° Southwest  Level Estimated
Fri 10:57:00 AM 54.6078 -49.8354 231° Southwest  Level Estimated
Fri 10:58:00 AM 54.5301 -49.9986 231° Southwest  Level Estimated
Fri 10:59:00 AM 54.4522 -50.1612 231° Southwest  Level Estimated
Fri 11:00:00 AM 54.3740 -50.3231 230° Southwest  Level Estimated
Fri 11:01:00 AM 54.2956 -50.4844 230° Southwest  Level Estimated
Fri 11:02:00 AM 54.2171 -50.6451 230° Southwest  Level Estimated
Fri 11:03:00 AM 54.1383 -50.8052 230° Southwest  Level Estimated
Fri 11:04:00 AM 54.0592 -50.9647 230° Southwest  Level Estimated
Fri 11:05:00 AM 53.9800 -51.1236 230° Southwest  Level Estimated
Fri 11:06:00 AM 53.9006 -51.2819 230° Southwest  Level Estimated
Fri 11:07:00 AM 53.8210 -51.4395 229° Southwest  Level Estimated
Fri 11:08:00 AM 53.7411 -51.5966 229° Southwest  Level Estimated
Fri 11:09:00 AM 53.6611 -51.7531 229° Southwest  Level Estimated
Fri 11:10:00 AM 53.5808 -51.9090 229° Southwest  Level Estimated
Fri 11:11:00 AM 53.5004 -52.0643 229° Southwest  Level Estimated
Fri 11:12:00 AM 53.4197 -52.2190 229° Southwest  Level Estimated
Fri 11:13:00 AM 53.3389 -52.3731 229° Southwest  Level Estimated
Fri 11:14:00 AM 53.2578 -52.5266 229° Southwest  Level Estimated
Fri 11:15:00 AM 53.1766 -52.6796 228° Southwest  Level Estimated
Fri 11:16:00 AM 53.0952 -52.8320 228° Southwest  Level Estimated
Fri 11:17:00 AM 53.0135 -52.9838 228° Southwest  Level Estimated
Fri 11:18:00 AM 52.9317 -53.1350 228° Southwest  Level Estimated
Fri 11:19:00 AM 52.8497 -53.2856 228° Southwest  Level Estimated
Fri 11:20:00 AM 52.7675 -53.4357 228° Southwest  Level Estimated
Fri 11:21:00 AM 52.6851 -53.5852 228° Southwest  Level Estimated
Fri 11:22:00 AM 52.6025 -53.7342 228° Southwest  Level Estimated
Fri 11:23:00 AM 52.5197 -53.8826 228° Southwest  Level Estimated
Fri 11:24:00 AM 52.4368 -54.0304 227° Southwest  Level Estimated
Fri 11:25:00 AM 52.3536 -54.1777 227° Southwest  Level Estimated
Fri 11:26:00 AM 52.2703 -54.3244 227° Southwest  Level Estimated
Fri 11:27:00 AM 52.1868 -54.4706 227° Southwest  Level Estimated
Fri 11:28:00 AM 52.1031 -54.6162 227° Southwest  Level Estimated
Fri 11:28:40 AM 56.5833 -61.6167 226° Southwest 410 472 36,000  Level Moncton Center
Fri 11:29:00 AM 52.0193 -54.7613 227° Southwest  Level Estimated
Fri 11:29:40 AM 56.4667 -61.7333 209° Southwest 430 495 36,000  Level Moncton Center
Fri 11:30:00 AM 51.9352 -54.9058 227° Southwest  Level Estimated
Fri 11:30:40 AM 56.3667 -61.8333 209° Southwest 420 483 36,000  Level Moncton Center
Fri 11:31:00 AM 51.8510 -55.0498 227° Southwest  Level Estimated
Fri 11:31:40 AM 56.2500 -61.9333 205° Southwest 430 495 36,000  Level Moncton Center
Fri 11:32:00 AM 51.7667 -55.1933 226° Southwest  Level Estimated
Fri 11:32:40 AM 56.1500 -62.0333 209° Southwest 430 495 36,000  Level Moncton Center
Fri 11:33:00 AM 51.6821 -55.3362 226° Southwest  Level Estimated
Fri 11:33:46 AM 56.0333 -62.1167 202° Southwest 430 495 36,000  Level Gander Center
Fri 11:34:00 AM 51.5985 -55.4767 226° Southwest  Level Estimated
Fri 11:34:46 AM 55.9333 -62.2333 213° Southwest 430 495 36,000  Level Gander Center
Fri 11:35:46 AM 55.8333 -62.3167 205° Southwest 430 495 36,000  Level Gander Center
Fri 11:36:46 AM 55.7333 -62.4167 209° Southwest 430 495 36,000  Level Gander Center
Fri 11:37:46 AM 55.6167 -62.5167 206° Southwest 440 506 36,000  Level Gander Center
Fri 11:38:46 AM 55.5167 -62.6167 210° Southwest 430 495 36,000  Level Gander Center
Fri 11:39:46 AM 55.4000 -62.7167 206° Southwest 430 495 36,000  Level Gander Center
Fri 11:40:46 AM 55.2833 -62.8000 202° Southwest 430 495 36,000  Level Gander Center
Fri 11:41:46 AM 55.1667 -62.8833 202° Southwest 440 506 36,000  Level Gander Center
Fri 11:43:46 AM 54.9667 -63.0833 210° Southwest 430 495 36,000  Level Gander Center
Fri 11:44:46 AM 54.8500 -63.2000 210° Southwest 430 495 36,000  Level Gander Center
Fri 11:45:46 AM 54.7500 -63.2833 206° Southwest 440 506 36,000  Level Gander Center
Fri 11:46:46 AM 54.6333 -63.3667 202° Southwest 440 506 36,000  Level Gander Center
Fri 11:47:46 AM 54.5333 -63.4500 206° Southwest 430 495 36,000  Level Gander Center
Fri 11:48:46 AM 54.4167 -63.5500 207° Southwest 440 506 36,000  Level Gander Center
Fri 11:49:46 AM 54.3167 -63.6333 206° Southwest 430 495 36,000  Level Gander Center
Fri 11:50:46 AM 54.2000 -63.7333 207° Southwest 440 506 36,000  Level Gander Center
Fri 11:51:46 AM 54.0833 -63.8167 203° Southwest 440 506 36,000  Level Gander Center
Fri 11:52:46 AM 53.9833 -63.9000 206° Southwest 440 506 36,000  Level Gander Center
Fri 11:53:46 AM 53.8667 -64.0000 207° Southwest 430 495 36,000  Level Gander Center
Fri 11:54:46 AM 53.7667 -64.0833 206° Southwest 440 506 36,000  Level Gander Center
Fri 11:55:46 AM 53.6500 -64.1833 207° Southwest 440 506 36,000  Level Gander Center
Fri 11:56:46 AM 53.5500 -64.2667 206° Southwest 440 506 36,000  Level Gander Center
Fri 11:57:46 AM 53.4333 -64.3667 207° Southwest 430 495 36,000  Level Gander Center
Fri 11:58:46 AM 53.3333 -64.4667 211° Southwest 440 506 36,000  Level Gander Center
Fri 11:59:46 AM 53.2333 -64.5500 207° Southwest 440 506 36,000  Level Gander Center
Fri 12:00:46 PM 53.1167 -64.6500 207° Southwest 440 506 36,000  Level Gander Center
Fri 12:01:46 PM 53.0167 -64.7500 211° Southwest 440 506 36,000  Level Gander Center
Fri 12:02:46 PM 52.8833 -64.8500 204° Southwest 440 506 36,000  Level Gander Center
Fri 12:03:46 PM 52.7833 -64.9333 207° Southwest 440 506 36,000  Level Gander Center
Fri 12:04:46 PM 52.6833 -65.0333 211° Southwest 440 506 36,000  Level Gander Center
Fri 12:05:46 PM 52.5833 -65.1333 211° Southwest 440 506 36,000  Level Gander Center
Fri 12:06:46 PM 52.4833 -65.2167 207° Southwest 440 506 36,000  Level Gander Center
Fri 12:07:46 PM 52.3667 -65.3000 204° Southwest 440 506 36,000  Level Gander Center
Fri 12:08:46 PM 52.2500 -65.4000 208° Southwest 440 506 36,000  Level Gander Center
Fri 12:09:46 PM 52.1333 -65.5000 208° Southwest 440 506 36,000  Level Gander Center
Fri 12:10:40 PM 52.0500 -65.5667 206° Southwest 440 506 36,000  Level Moncton Center
Fri 12:11:40 PM 51.9500 -65.6667 212° Southwest 440 506 36,000  Level Moncton Center
Fri 12:12:40 PM 51.8333 -65.7167 195° South 440 506 36,000  Level Moncton Center
Fri 12:13:40 PM 51.7000 -65.7667 193° South 450 518 36,000  Level Moncton Center
Fri 12:14:40 PM 51.5667 -65.8167 193° South 450 518 36,000  Level Moncton Center
Fri 12:15:40 PM 51.4500 -65.8667 195° South 450 518 36,000  Level Moncton Center
Fri 12:16:40 PM 51.3167 -65.9000 189° South 450 518 36,000  Level Moncton Center
Fri 12:17:40 PM 51.2000 -65.9500 195° South 450 518 36,000  Level Moncton Center
Fri 12:18:40 PM 51.0833 -66.0167 200° South 450 518 36,000  Level Moncton Center
Fri 12:19:40 PM 50.9667 -66.0667 195° South 450 518 36,000  Level Moncton Center
Fri 12:20:40 PM 50.8500 -66.1500 204° Southwest 440 506 36,000 -100 Level Moncton Center
Fri 12:21:40 PM 50.7333 -66.2167 200° South 440 506 35,800 -300 Descending Moncton Center
Fri 12:22:40 PM 50.6167 -66.2667 195° South 440 506 35,400 -400 Descending Moncton Center
Fri 12:23:40 PM 50.5000 -66.3500 204° Southwest 450 518 35,000 -200 Descending Moncton Center
Fri 12:24:40 PM 50.3833 -66.4167 200° South 440 506 35,000  Level Moncton Center
Fri 12:25:40 PM 50.2667 -66.4667 195° South 450 518 35,000  Level Moncton Center
Fri 12:26:40 PM 50.1333 -66.5333 198° South 440 506 35,000  Level Moncton Center
Fri 12:27:40 PM 50.0333 -66.5833 198° South 440 506 35,000  Level Moncton Center
Fri 12:28:40 PM 49.9167 -66.6667 205° Southwest 440 506 35,000  Level Moncton Center
Fri 12:29:40 PM 49.8000 -66.7333 200° South 440 506 35,000  Level Moncton Center
Fri 12:30:40 PM 49.6833 -66.7833 195° South 440 506 35,000  Level Moncton Center
Fri 12:31:40 PM 49.5667 -66.8500 200° South 440 506 35,000  Level Moncton Center
Fri 12:32:40 PM 49.4500 -66.9000 196° South 440 506 35,000  Level Moncton Center
Fri 12:33:40 PM 49.3333 -66.9667 200° South 450 518 35,000  Level Moncton Center
Fri 12:34:40 PM 49.2167 -67.0167 196° South 450 518 35,000  Level Moncton Center
Fri 12:35:40 PM 49.1167 -67.0833 204° Southwest 440 506 35,000  Level Moncton Center
Fri 12:36:40 PM 48.9667 -67.1500 196° South 440 506 35,000  Level Moncton Center
Fri 12:37:40 PM 48.8667 -67.2000 198° South 440 506 35,000  Level Moncton Center
Fri 12:38:40 PM 48.7500 -67.2667 201° Southwest 440 506 35,000  Level Moncton Center
Fri 12:39:40 PM 48.6333 -67.3167 196° South 440 506 35,000  Level Moncton Center
Fri 12:40:40 PM 48.5167 -67.3833 201° Southwest 440 506 35,000  Level Moncton Center
Fri 12:41:40 PM 48.4000 -67.4500 201° Southwest 440 506 35,000  Level Moncton Center
Fri 12:42:40 PM 48.2833 -67.5000 196° South 440 506 35,000  Level Moncton Center
Fri 12:43:40 PM 48.1667 -67.5667 201° Southwest 450 518 35,000  Level Moncton Center
Fri 12:44:40 PM 48.0333 -67.6000 189° South 450 518 35,000  Level Moncton Center
Fri 12:45:40 PM 47.9167 -67.6667 201° Southwest 440 506 35,000  Level Moncton Center
Fri 12:46:40 PM 47.8000 -67.7333 201° Southwest 440 506 35,000  Level Moncton Center
Fri 12:47:40 PM 47.6833 -67.7833 196° South 440 506 35,000  Level Moncton Center
Fri 12:48:40 PM 47.5667 -67.8500 201° Southwest 450 518 35,000  Level Moncton Center
Fri 12:49:40 PM 47.4667 -67.8833 193° South 440 506 35,000  Level Moncton Center
Fri 12:50:40 PM 47.3500 -67.9500 201° Southwest 450 518 35,000  Level Moncton Center
Fri 12:51:37 PM 47.2444 -68.0100 201° Southwest 444 511 35,000  Level Boston Center
Fri 12:52:38 PM 47.1278 -68.0647 198° South 442 509 35,000  Level Boston Center
Fri 12:53:38 PM 47.0072 -68.1217 198° South 441 507 35,000  Level Boston Center
Fri 12:54:42 PM 46.8894 -68.1758 197° South 441 507 35,000  Level Boston Center
Fri 12:55:42 PM 46.7708 -68.2325 198° South 445 512 35,000  Level Boston Center
Fri 12:56:44 PM 46.6531 -68.2881 198° South 442 509 35,000  Level Boston Center
Fri 12:57:44 PM 46.5356 -68.3419 198° South 442 509 35,000  Level Boston Center
Fri 12:58:45 PM 46.4181 -68.3950 197° South 440 506 35,000  Level Boston Center
Fri 12:59:46 PM 46.3019 -68.4492 198° South 436 502 35,000  Level Boston Center
Fri 01:00:47 PM 46.1947 -68.4992 198° South 434 499 35,000  Level Boston Center
Fri 01:02:40 PM 45.9500 -68.6167 198° South 440 506 35,000  Level Moncton Center
Fri 01:03:40 PM 45.8333 -68.6667 197° South 430 495 35,000  Level Moncton Center
Fri 01:04:52 PM 45.7164 -68.7142 196° South 440 506 35,000  Level Boston Center
Fri 01:05:55 PM 45.5981 -68.7681 198° South 442 509 35,000  Level Boston Center
Fri 01:06:56 PM 45.4789 -68.8208 197° South 445 512 35,000  Level Boston Center
Fri 01:07:57 PM 45.3594 -68.8736 197° South 445 512 35,000  Level Boston Center
Fri 01:08:58 PM 45.2172 -68.9378 198° South 443 510 35,000  Level Boston Center
Fri 01:09:59 PM 45.0975 -68.9914 198° South 444 511 35,000  Level Boston Center
Fri 01:11:01 PM 44.9758 -69.0425 197° South 450 518 35,000  Level Boston Center
Fri 01:12:02 PM 44.8556 -69.0961 198° South 448 516 35,000  Level Boston Center
Fri 01:13:03 PM 44.7342 -69.1481 197° South 448 516 35,000  Level Boston Center
Fri 01:14:03 PM 44.6142 -69.1994 197° South 444 511 35,000  Level Boston Center
Fri 01:15:04 PM 44.4944 -69.2503 197° South 441 507 35,000  Level Boston Center
Fri 01:16:06 PM 44.3758 -69.3014 197° South 440 506 35,000  Level Boston Center
Fri 01:17:09 PM 44.2561 -69.3511 197° South 444 511 35,000  Level Boston Center
Fri 01:18:11 PM 44.1367 -69.4019 197° South 446 513 35,000  Level Boston Center
Fri 01:19:11 PM 44.0172 -69.4531 197° South 445 512 35,000  Level Boston Center
Fri 01:20:11 PM 43.8983 -69.5058 198° South 445 512 35,000  Level Boston Center
Fri 01:21:12 PM 43.7950 -69.5878 210° Southwest 428 493 35,000  Level Boston Center
Fri 01:22:16 PM 43.7017 -69.6908 219° Southwest 424 488 35,000  Level Boston Center
Fri 01:23:16 PM 43.6069 -69.7922 218° Southwest 426 490 35,000  Level Boston Center
Fri 01:24:18 PM 43.5125 -69.8914 217° Southwest 424 488 35,000  Level Boston Center
Fri 01:25:19 PM 43.4178 -69.9925 218° Southwest 427 491 35,000  Level Boston Center
Fri 01:26:20 PM 43.3139 -70.1044 218° Southwest 430 495 35,000  Level Boston Center
Fri 01:27:20 PM 43.2200 -70.2014 217° Southwest 425 489 35,000  Level Boston Center
Fri 01:28:21 PM 43.1261 -70.2994 217° Southwest 424 488 35,000  Level Boston Center
Fri 01:29:22 PM 43.0319 -70.3958 217° Southwest 424 488 35,000  Level Boston Center
Fri 01:30:26 PM 42.9386 -70.4925 217° Southwest 422 486 35,000  Level Boston Center
Fri 01:31:28 PM 42.8442 -70.5886 217° Southwest 423 487 35,000  Level Boston Center
Fri 01:32:28 PM 42.7500 -70.6867 217° Southwest 427 491 35,000  Level Boston Center
Fri 01:33:28 PM 42.6381 -70.8011 217° Southwest 423 487 35,000  Level Boston Center
Fri 01:34:29 PM 42.5478 -70.9047 220° Southwest 426 490 35,000  Level Boston Center
Fri 01:35:33 PM 42.4578 -71.0047 219° Southwest 423 487 35,000  Level Boston Center
Fri 01:36:34 PM 42.3661 -71.1053 219° Southwest 424 488 35,000  Level Boston Center
Fri 01:37:35 PM 42.2700 -71.2119 219° Southwest 422 486 35,000  Level Boston Center
Fri 01:38:36 PM 42.1786 -71.3114 219° Southwest 421 484 35,000  Level Boston Center
Fri 01:39:37 PM 42.0881 -71.4106 219° Southwest 419 482 35,000  Level Boston Center
Fri 01:40:38 PM 41.9961 -71.5086 218° Southwest 419 482 35,000  Level Boston Center
Fri 01:41:39 PM 41.9056 -71.6075 219° Southwest 419 482 35,000  Level Boston Center
Fri 01:42:40 PM 41.8139 -71.7047 218° Southwest 419 482 35,000  Level Boston Center
Fri 01:43:42 PM 41.7233 -71.8022 219° Southwest 417 480 35,000  Level Boston Center
Fri 01:44:44 PM 41.6317 -71.8994 218° Southwest 420 483 35,000  Level Boston Center
Fri 01:45:44 PM 41.5358 -72.0000 218° Southwest 416 479 35,000  Level Boston Center
Fri 01:46:46 PM 41.4469 -72.0956 219° Southwest 413 475 35,000  Level Boston Center
Fri 01:47:48 PM 41.3569 -72.1894 218° Southwest 411 473 35,000  Level Boston Center
Fri 01:48:48 PM 41.2528 -72.2994 218° Southwest 414 476 35,000  Level Boston Center
Fri 01:49:48 PM 41.1647 -72.3919 218° Southwest 408 470 35,000  Level Boston Center
Fri 01:50:49 PM 41.0767 -72.4853 219° Southwest 405 466 35,000  Level Boston Center
Fri 01:51:52 PM 40.9886 -72.5769 218° Southwest 403 464 35,000  Level Boston Center
Fri 01:52:53 PM 40.8989 -72.6689 218° Southwest 407 468 35,000  Level Boston Center
Fri 01:53:54 PM 40.8117 -72.7592 218° Southwest 403 464 35,000  Level Boston Center
Fri 01:54:54 PM 40.7308 -72.8444 219° Southwest 395 455 35,000  Level Boston Center
Fri 01:55:54 PM 40.6294 -72.9472 218° Southwest 385 443 35,000 -242 Level Boston Center
Fri 01:56:58 PM 40.5472 -73.0331 218° Southwest 379 436 34,500 -480 Descending Boston Center
Fri 01:57:59 PM 40.4639 -73.1181 218° Southwest 380 437 34,000 -246 Descending Boston Center
Fri 01:59:00 PM 40.3786 -73.2044 218° Southwest 386 444 34,000  Level Boston Center
Fri 02:00:00 PM 40.2925 -73.2922 218° Southwest 390 449 34,000  Level Boston Center
Fri 02:01:03 PM 40.2056 -73.3783 217° Southwest 391 450 34,000  Level Boston Center
Fri 02:02:03 PM 40.1217 -73.4650 218° Southwest 390 449 34,000  Level Boston Center
Fri 02:03:07 PM 40.0153 -73.5706 217° Southwest 407 468 34,000  Level Washington Center
Fri 02:04:07 PM 39.9292 -73.6569 218° Southwest 400 460 34,000  Level Washington Center
Fri 02:05:05 PM 39.8600 -73.7261 218° Southwest 391 450 34,000  Level Boston Center
Fri 02:06:08 PM 39.7567 -73.8289 217° Southwest 400 460 34,000  Level Washington Center
Fri 02:07:09 PM 39.6706 -73.9147 218° Southwest 400 460 34,000  Level Washington Center
Fri 02:08:09 PM 39.5778 -73.9922 213° Southwest 400 460 34,000  Level Washington Center
Fri 02:09:07 PM 39.4933 -74.0614 212° Southwest 400 460 34,000  Level Washington Center
Fri 02:10:08 PM 39.4006 -74.1386 213° Southwest 400 460 34,000  Level Washington Center
Fri 02:11:08 PM 39.3033 -74.2156 211° Southwest 411 473 34,000  Level Washington Center
Fri 02:12:09 PM 39.2125 -74.2869 211° Southwest 406 467 34,000  Level Washington Center
Fri 02:13:10 PM 39.1194 -74.3636 213° Southwest 406 467 34,000  Level Washington Center
Fri 02:14:07 PM 39.0244 -74.4375 211° Southwest 406 467 34,000  Level Washington Center
Fri 02:15:07 PM 38.9292 -74.5136 212° Southwest 411 473 34,000  Level Washington Center
Fri 02:16:09 PM 38.8339 -74.5897 212° Southwest 411 473 34,000  Level Washington Center
Fri 02:17:07 PM 38.7386 -74.6628 211° Southwest 411 473 34,000  Level Washington Center
Fri 02:18:08 PM 38.6453 -74.7383 212° Southwest 411 473 34,000  Level Washington Center
Fri 02:19:09 PM 38.5500 -74.8086 210° Southwest 411 473 34,000  Level Washington Center
Fri 02:20:09 PM 38.4544 -74.8864 213° Southwest 411 473 34,000  Level Washington Center
Fri 02:21:07 PM 38.3611 -74.9561 210° Southwest 411 473 34,000  Level Washington Center
Fri 02:22:08 PM 38.2572 -75.0417 213° Southwest 411 473 34,000  Level Washington Center
Fri 02:23:09 PM 38.1639 -75.1164 212° Southwest 411 473 34,000  Level Washington Center
Fri 02:24:07 PM 38.0639 -75.1856 209° Southwest 411 473 34,000  Level Washington Center
Fri 02:25:08 PM 37.9703 -75.2625 213° Southwest 406 467 34,000  Level Washington Center
Fri 02:26:08 PM 37.8725 -75.3339 210° Southwest 411 473 34,000  Level Washington Center
Fri 02:27:10 PM 37.7767 -75.4106 212° Southwest 411 473 34,000  Level Washington Center
Fri 02:28:07 PM 37.6789 -75.4842 211° Southwest 411 473 34,000  Level Washington Center
Fri 02:29:08 PM 37.5808 -75.5550 210° Southwest 411 473 34,000  Level Washington Center
Fri 02:30:09 PM 37.4850 -75.6311 212° Southwest 411 473 34,000  Level Washington Center
Fri 02:31:10 PM 37.3867 -75.7017 210° Southwest 411 473 34,000  Level Washington Center
Fri 02:32:08 PM 37.2908 -75.7747 211° Southwest 411 473 34,000  Level Washington Center
Fri 02:33:09 PM 37.1947 -75.8475 211° Southwest 411 473 34,000  Level Washington Center
Fri 02:34:10 PM 37.1047 -75.9122 210° Southwest 411 473 34,000  Level Washington Center
Fri 02:35:07 PM 37.0067 -75.9847 211° Southwest 411 473 34,000  Level Washington Center
Fri 02:36:07 PM 36.9061 -76.0542 209° Southwest 416 479 34,000  Level Washington Center
Fri 02:37:09 PM 36.8078 -76.1264 210° Southwest 416 479 34,000  Level Washington Center
Fri 02:38:07 PM 36.6989 -76.2083 211° Southwest 416 479 34,000  Level Washington Center
Fri 02:39:08 PM 36.6111 -76.2778 212° Southwest 421 484 34,000  Level Washington Center
Fri 02:40:09 PM 36.5125 -76.3467 209° Southwest 421 484 34,000  Level Washington Center
Fri 02:41:09 PM 36.4119 -76.4206 211° Southwest 421 484 34,000  Level Washington Center
Fri 02:42:10 PM 36.3133 -76.4917 210° Southwest 421 484 34,000  Level Washington Center
Fri 02:43:07 PM 36.2125 -76.5625 210° Southwest 421 484 34,000  Level Washington Center
Fri 02:44:07 PM 36.1161 -76.6358 212° Southwest 421 484 34,000  Level Washington Center
Fri 02:45:08 PM 36.0153 -76.7064 210° Southwest 421 484 34,000  Level Washington Center
Fri 02:46:08 PM 35.9122 -76.7769 209° Southwest 427 491 34,000  Level Washington Center
Fri 02:47:09 PM 35.8136 -76.8497 211° Southwest 422 486 34,000  Level Washington Center
Fri 02:48:09 PM 35.7125 -76.9222 210° Southwest 422 486 34,000  Level Washington Center
Fri 02:49:07 PM 35.6033 -76.9997 210° Southwest 422 486 34,000  Level Washington Center
Fri 02:50:08 PM 35.4942 -77.0564 203° Southwest 422 486 34,000  Level Washington Center
Fri 02:51:09 PM 35.3808 -77.1028 198° South 427 491 34,000  Level Washington Center
Fri 02:52:08 PM 35.2675 -77.1489 198° South 433 498 34,000  Level Washington Center
Fri 02:53:08 PM 35.1564 -77.1950 199° South 433 498 34,000  Level Washington Center
Fri 02:54:09 PM 35.0389 -77.2411 198° South 432 497 34,000  Level Washington Center
Fri 02:55:09 PM 34.9256 -77.2842 197° South 432 497 34,000  Level Washington Center
Fri 02:56:10 PM 34.8142 -77.3350 201° Southwest 427 491 34,000  Level Washington Center
Fri 02:57:07 PM 34.7011 -77.3756 196° South 427 491 34,000  Level Washington Center
Fri 02:58:07 PM 34.5875 -77.4236 199° South 427 491 34,000  Level Washington Center
Fri 02:59:09 PM 34.4764 -77.4664 198° South 427 491 34,000  Level Washington Center
Fri 03:00:09 PM 34.3631 -77.5117 198° South 427 491 34,000  Level Washington Center
Fri 03:01:07 PM 34.2497 -77.5567 198° South 427 491 34,000  Level Washington Center
Fri 03:02:46 PM 34.0603 -77.6289 198° South 421 484 34,000  Level Jacksonville Center
Fri 03:03:46 PM 33.9453 -77.6733 198° South 421 484 34,000  Level Jacksonville Center
Fri 03:04:46 PM 33.8325 -77.7200 199° South 428 493 34,000  Level Jacksonville Center
Fri 03:05:46 PM 33.7156 -77.7644 198° South 434 499 34,000  Level Jacksonville Center
Fri 03:06:46 PM 33.6006 -77.8083 198° South 440 506 34,000  Level Jacksonville Center
Fri 03:07:46 PM 33.4833 -77.8525 197° South 440 506 34,000  Level Jacksonville Center
Fri 03:08:46 PM 33.3681 -77.8964 198° South 435 501 34,000  Level Jacksonville Center
Fri 03:09:46 PM 33.2550 -77.9400 198° South 435 501 34,000  Level Jacksonville Center
Fri 03:10:46 PM 33.1378 -77.9836 197° South 435 501 34,000  Level Jacksonville Center
Fri 03:11:46 PM 33.0247 -78.0269 198° South 435 501 34,000  Level Jacksonville Center
Fri 03:12:46 PM 32.9075 -78.0706 197° South 440 506 34,000  Level Jacksonville Center
Fri 03:13:46 PM 32.7903 -78.1161 198° South 440 506 34,000  Level Jacksonville Center
Fri 03:14:46 PM 32.6750 -78.1617 198° South 440 506 34,000  Level Jacksonville Center
Fri 03:15:46 PM 32.5578 -78.2050 197° South 440 506 34,000  Level Jacksonville Center
Fri 03:16:46 PM 32.4406 -78.2503 198° South 440 506 34,000  Level Jacksonville Center
Fri 03:17:46 PM 32.3231 -78.2956 198° South 440 506 34,000  Level Jacksonville Center
Fri 03:18:46 PM 32.2039 -78.3433 199° South 447 514 34,000  Level Jacksonville Center
Fri 03:19:46 PM 32.0864 -78.3858 197° South 442 509 34,000  Level Jacksonville Center
Fri 03:20:46 PM 31.9731 -78.4258 197° South 437 503 34,000  Level Jacksonville Center
Fri 03:21:46 PM 31.8536 -78.4756 199° South 437 503 34,000  Level Jacksonville Center
Fri 03:22:46 PM 31.7381 -78.5153 196° South 437 503 34,000  Level Jacksonville Center
Fri 03:23:46 PM 31.6247 -78.5572 197° South 431 496 34,000  Level Jacksonville Center
Fri 03:24:46 PM 31.5133 -78.5989 198° South 431 496 34,000 400 Level Jacksonville Center
Fri 03:25:46 PM 31.3981 -78.6408 197° South 436 502 34,800 1,000 Climbing Jacksonville Center
Fri 03:26:46 PM 31.2886 -78.6822 198° South 431 496 36,000 600 Climbing Jacksonville Center
Fri 03:27:46 PM 31.1814 -78.7211 197° South 419 482 36,000  Level Jacksonville Center
Fri 03:28:46 PM 31.0722 -78.7669 200° South 414 476 36,000  Level Jacksonville Center
Fri 03:29:46 PM 30.9689 -78.7983 195° South 414 476 36,000  Level Jacksonville Center
Fri 03:32:09 PM 30.6992 -78.8956 197° South 420 483 36,000  Level Miami Center
Fri 03:33:09 PM 30.5883 -78.9344 197° South 426 490 36,000  Level Miami Center
Fri 03:34:09 PM 30.4731 -78.9781 198° South 426 490 36,000  Level Miami Center
Fri 03:35:09 PM 30.3578 -79.0214 198° South 426 490 36,000  Level Miami Center
Fri 03:36:09 PM 30.2550 -79.0697 202° Southwest 420 483 36,000  Level Miami Center
Fri 03:37:09 PM 30.1542 -79.1131 200° South 408 470 36,000  Level Miami Center
Fri 03:38:09 PM 30.0408 -79.1611 200° South 414 476 36,000  Level Miami Center
Fri 03:39:09 PM 29.9356 -79.2139 203° Southwest 419 482 36,000  Level Miami Center
Fri 03:40:09 PM 29.8264 -79.2594 200° South 419 482 36,000  Level Miami Center
Fri 03:41:09 PM 29.7172 -79.3069 201° Southwest 419 482 36,000  Level Miami Center
Fri 03:42:09 PM 29.6100 -79.3525 200° South 419 482 36,000  Level Miami Center
Fri 03:43:09 PM 29.4989 -79.3953 199° South 419 482 36,000  Level Miami Center
Fri 03:44:09 PM 29.3917 -79.4450 202° Southwest 414 476 36,000  Level Miami Center
Fri 03:45:09 PM 29.2822 -79.4925 201° Southwest 414 476 36,000  Level Miami Center
Fri 03:46:09 PM 29.1731 -79.5372 200° South 414 476 36,000  Level Miami Center
Fri 03:47:09 PM 29.0697 -79.5942 206° Southwest 419 482 36,000  Level Miami Center
Fri 03:48:09 PM 28.9764 -79.6653 214° Southwest 414 476 36,000  Level Miami Center
Fri 03:49:09 PM 28.8853 -79.7436 217° Southwest 414 476 36,000  Level Miami Center
Fri 03:50:09 PM 28.7658 -79.7619 188° South 407 468 36,000  Level Miami Center
Fri 03:51:09 PM 28.6406 -79.7706 183° South 425 489 36,000  Level Miami Center
Fri 03:52:09 PM 28.5172 -79.7792 184° South 439 505 36,000  Level Miami Center
Fri 03:53:09 PM 28.3958 -79.7925 186° South 446 513 36,000  Level Miami Center
Fri 03:54:09 PM 28.2767 -79.7986 183° South 446 513 36,000  Level Miami Center
Fri 03:55:09 PM 28.1575 -79.8214 190° South 446 513 36,000  Level Miami Center
Fri 03:56:09 PM 28.0436 -79.8656 199° South 436 502 36,000  Level Miami Center
Fri 03:57:09 PM 27.9322 -79.9097 199° South 436 502 36,000  Level Miami Center
Fri 03:58:09 PM 27.8144 -79.9511 197° South 436 502 36,000  Level Miami Center
Fri 03:59:09 PM 27.6986 -79.9950 199° South 436 502 36,000  Level Miami Center
Fri 04:00:09 PM 27.5808 -80.0386 198° South 441 507 36,000  Level Miami Center
Fri 04:01:09 PM 27.4797 -80.0803 200° South 441 507 36,000  Level Miami Center
Fri 04:02:09 PM 27.3658 -80.1214 198° South 441 507 36,000  Level Miami Center
Fri 04:03:09 PM 27.2500 -80.1650 199° South 441 507 36,000  Level Miami Center
Fri 04:04:09 PM 27.1322 -80.2083 198° South 441 507 36,000  Level Miami Center
Fri 04:05:09 PM 27.0164 -80.2539 199° South 446 513 36,000  Level Miami Center
Fri 04:06:09 PM 26.9025 -80.2972 199° South 446 513 36,000  Level Miami Center
Fri 04:07:09 PM 26.7783 -80.3422 198° South 441 507 36,000  Level Miami Center
Fri 04:08:09 PM 26.6644 -80.3856 199° South 441 507 36,000  Level Miami Center
Fri 04:09:09 PM 26.5486 -80.4283 198° South 441 507 36,000  Level Miami Center
Fri 04:10:09 PM 26.4325 -80.4714 198° South 441 507 36,000  Level Miami Center
Fri 04:11:09 PM 26.3167 -80.5142 198° South 436 502 36,000  Level Miami Center
Fri 04:12:09 PM 26.2156 -80.5503 198° South 436 502 36,000  Level Miami Center
Fri 04:13:09 PM 26.0994 -80.5931 198° South 431 496 36,000  Level Miami Center
Fri 04:14:09 PM 26.0017 -80.6661 214° Southwest 425 489 36,000  Level Miami Center
Fri 04:15:09 PM 25.8989 -80.7531 217° Southwest 433 498 36,000  Level Miami Center
Fri 04:16:09 PM 25.8031 -80.8306 216° Southwest 433 498 36,000  Level Miami Center
Fri 04:17:09 PM 25.7067 -80.9106 217° Southwest 433 498 36,000  Level Miami Center
Fri 04:18:09 PM 25.6086 -80.9856 215° Southwest 433 498 36,000  Level Miami Center
Fri 04:19:09 PM 25.5125 -81.0650 217° Southwest 438 504 36,000  Level Miami Center
Fri 04:20:09 PM 25.4183 -81.1400 216° Southwest 438 504 36,000  Level Miami Center
Fri 04:21:09 PM 25.3219 -81.2169 216° Southwest 438 504 36,000  Level Miami Center
Fri 04:22:09 PM 25.2258 -81.2917 215° Southwest 438 504 36,000  Level Miami Center
Fri 04:23:09 PM 25.1317 -81.3708 217° Southwest 438 504 36,000 -350 Level Miami Center
Fri 04:24:09 PM 25.0353 -81.4453 215° Southwest 438 504 35,300 -850 Descending Miami Center
Fri 04:25:09 PM 24.9389 -81.5242 217° Southwest 438 504 34,300 -950 Descending Miami Center
Fri 04:26:09 PM 24.8575 -81.5872 215° Southwest 438 504 33,400 -950 Descending Miami Center
Fri 04:27:09 PM 24.7631 -81.6639 216° Southwest 425 489 32,400 -900 Descending Miami Center
Fri 04:28:09 PM 24.6644 -81.7489 218° Southwest 420 483 31,600 -1,000 Descending Miami Center
Fri 04:29:09 PM 24.5761 -81.8233 217° Southwest 428 493 30,400 -1,150 Descending Miami Center
Fri 04:30:09 PM 24.4981 -81.9092 225° Southwest 406 467 29,300 -1,050 Descending Miami Center
Fri 04:31:09 PM 24.4261 -81.9972 228° Southwest 396 456 28,300 -1,000 Descending Miami Center
Fri 04:32:09 PM 24.3564 -82.0856 229° Southwest 391 450 27,300 -1,000 Descending Miami Center
Fri 04:33:09 PM 24.2928 -82.1719 231° Southwest 377 434 26,300 -1,000 Descending Miami Center
Fri 04:34:09 PM 24.2253 -82.2486 226° Southwest 365 420 25,300 -1,000 Descending Miami Center
Fri 04:35:09 PM 24.1600 -82.3231 226° Southwest 354 407 24,300 -1,050 Descending Miami Center
Fri 04:36:09 PM 24.0906 -82.3928 223° Southwest 349 402 23,200 -1,000 Descending Miami Center
Fri 04:37:09 PM 24.0314 -82.4697 230° Southwest 342 394 22,300 -1,250 Descending Miami Center
Fri 04:38:09 PM 23.9583 -82.5189 212° Southwest 327 376 20,700 -1,600 Descending Miami Center
Fri 04:40:00 PM 23.7388 -82.4806 175° South  Level FlightAware Approximate
Fri 04:47:00 PM 22.9891 -82.4091 180° South  Level Estimated
Fri 04:48:00 PM 22.9891 -82.4091 180° South  Level Estimated
Fri 04:49:00 PM 22.9891 -82.4091 180° South  Level Estimated
Fri 04:50:00 PM 22.9891 -82.4091 180° South  Level Estimated
Fri 04:51:00 PM 22.9891 -82.4091 180° South  Level Estimated
Fri 04:52:00 PM 22.9891 -82.4091 180° South  Level Estimated
Fri 04:53:00 PM 22.9891 -82.4091 180° South  Level Estimated
Fri 04:54:00 PM 22.9891 -82.4091 180° South  Level Estimated
Fri 04:55:00 PM 22.9891 -82.4091 180° South  Level Estimated
Fri 04:56:00 PM 22.9891 -82.4091 180° South  Level Estimated
Fri 04:57:00 PM 22.9891 -82.4091 180° South  Level Estimated
Fri 04:58:00 PM 22.9891 -82.4091 180° South  Level Estimated
Fri 04:59:00 PM 22.9891 -82.4091 180° South  Level Estimated
Fri 05:00:00 PM 22.9891 -82.4091 180° South  Level Estimated
Fri 05:01:00 PM 22.9891 -82.4091 180° South  Level Estimated
Fri 05:02:00 PM 22.9891 -82.4091 180° South  Level Estimated
Fri 05:03:00 PM 22.9891 -82.4091 180° South  Level Estimated
Fri 05:04:00 PM 22.9891 -82.4091 180° South  Level Estimated
Fri 05:05:00 PM 22.9891 -82.4091 180° South  Level Estimated
Fri 05:06:00 PM 22.9891 -82.4091 180° South  Level Estimated
Fri 05:07:00 PM 22.9891 -82.4091 180° South  Level Estimated

Login

Don't have an account? Register now (free) for customized features, flight alerts, and more!